sensor_id;sensor_type;location;lat;lon;timestamp;P1;durP1;ratioP1;P2;durP2;ratioP2
3197;SDS011;1611;49.394;11.136;2023-07-29T00:00:06;4.50;;;4.20;;
3197;SDS011;1611;49.394;11.136;2023-07-29T00:02:34;4.03;;;3.80;;
3197;SDS011;1611;49.394;11.136;2023-07-29T00:05:01;4.10;;;3.73;;
3197;SDS011;1611;49.394;11.136;2023-07-29T00:07:27;16.73;;;4.60;;
3197;SDS011;1611;49.394;11.136;2023-07-29T00:09:54;4.30;;;3.30;;
3197;SDS011;1611;49.394;11.136;2023-07-29T00:12:22;4.20;;;3.40;;
3197;SDS011;1611;49.394;11.136;2023-07-29T00:14:49;3.83;;;3.53;;
3197;SDS011;1611;49.394;11.136;2023-07-29T00:17:16;9.37;;;4.40;;
3197;SDS011;1611;49.394;11.136;2023-07-29T00:19:45;9.33;;;4.50;;
3197;SDS011;1611;49.394;11.136;2023-07-29T00:22:11;12.83;;;4.80;;
3197;SDS011;1611;49.394;11.136;2023-07-29T00:24:39;6.23;;;4.60;;
3197;SDS011;1611;49.394;11.136;2023-07-29T00:27:06;3.80;;;3.40;;
3197;SDS011;1611;49.394;11.136;2023-07-29T00:29:34;7.13;;;4.30;;
3197;SDS011;1611;49.394;11.136;2023-07-29T00:32:01;8.53;;;3.63;;
3197;SDS011;1611;49.394;11.136;2023-07-29T00:34:28;4.80;;;4.13;;
3197;SDS011;1611;49.394;11.136;2023-07-29T00:36:55;4.27;;;3.80;;
3197;SDS011;1611;49.394;11.136;2023-07-29T00:39:22;11.87;;;3.97;;
3197;SDS011;1611;49.394;11.136;2023-07-29T00:41:49;3.53;;;3.30;;
3197;SDS011;1611;49.394;11.136;2023-07-29T00:44:16;14.80;;;4.17;;
3197;SDS011;1611;49.394;11.136;2023-07-29T00:46:44;4.60;;;4.20;;
3197;SDS011;1611;49.394;11.136;2023-07-29T00:49:12;3.77;;;3.57;;
3197;SDS011;1611;49.394;11.136;2023-07-29T00:51:39;11.43;;;4.20;;
3197;SDS011;1611;49.394;11.136;2023-07-29T00:54:06;5.57;;;3.70;;
3197;SDS011;1611;49.394;11.136;2023-07-29T00:56:32;5.10;;;3.93;;
3197;SDS011;1611;49.394;11.136;2023-07-29T00:58:59;5.90;;;4.37;;
3197;SDS011;1611;49.394;11.136;2023-07-29T01:01:27;4.30;;;4.00;;
3197;SDS011;1611;49.394;11.136;2023-07-29T01:03:55;4.13;;;3.83;;
3197;SDS011;1611;49.394;11.136;2023-07-29T01:06:23;12.97;;;4.90;;
3197;SDS011;1611;49.394;11.136;2023-07-29T01:08:56;8.90;;;4.30;;
3197;SDS011;1611;49.394;11.136;2023-07-29T01:11:32;5.90;;;3.67;;
3197;SDS011;1611;49.394;11.136;2023-07-29T01:14:05;5.93;;;3.67;;
3197;SDS011;1611;49.394;11.136;2023-07-29T01:16:44;8.60;;;3.93;;
3197;SDS011;1611;49.394;11.136;2023-07-29T01:19:28;9.90;;;4.43;;
3197;SDS011;1611;49.394;11.136;2023-07-29T01:22:08;6.20;;;4.60;;
3197;SDS011;1611;49.394;11.136;2023-07-29T01:24:38;4.53;;;4.27;;
3197;SDS011;1611;49.394;11.136;2023-07-29T01:27:05;5.73;;;4.50;;
3197;SDS011;1611;49.394;11.136;2023-07-29T01:29:32;4.77;;;4.10;;
3197;SDS011;1611;49.394;11.136;2023-07-29T01:32:01;3.97;;;3.67;;
3197;SDS011;1611;49.394;11.136;2023-07-29T01:34:35;4.37;;;4.07;;
3197;SDS011;1611;49.394;11.136;2023-07-29T01:37:08;14.60;;;4.40;;
3197;SDS011;1611;49.394;11.136;2023-07-29T01:39:40;7.77;;;4.20;;
3197;SDS011;1611;49.394;11.136;2023-07-29T01:42:09;4.80;;;4.17;;
3197;SDS011;1611;49.394;11.136;2023-07-29T01:44:36;5.80;;;4.50;;
3197;SDS011;1611;49.394;11.136;2023-07-29T01:47:03;4.77;;;4.40;;
3197;SDS011;1611;49.394;11.136;2023-07-29T01:49:30;7.30;;;3.90;;
3197;SDS011;1611;49.394;11.136;2023-07-29T01:51:57;4.67;;;4.20;;
3197;SDS011;1611;49.394;11.136;2023-07-29T01:54:24;4.23;;;3.93;;
3197;SDS011;1611;49.394;11.136;2023-07-29T01:56:52;5.03;;;4.53;;
3197;SDS011;1611;49.394;11.136;2023-07-29T01:59:18;4.30;;;4.00;;
3197;SDS011;1611;49.394;11.136;2023-07-29T02:01:45;4.27;;;3.83;;
3197;SDS011;1611;49.394;11.136;2023-07-29T02:04:12;11.10;;;4.47;;
3197;SDS011;1611;49.394;11.136;2023-07-29T02:06:39;5.40;;;4.73;;
3197;SDS011;1611;49.394;11.136;2023-07-29T02:09:05;4.80;;;4.40;;
3197;SDS011;1611;49.394;11.136;2023-07-29T02:11:32;5.53;;;4.00;;
3197;SDS011;1611;49.394;11.136;2023-07-29T02:14:01;4.70;;;4.27;;
3197;SDS011;1611;49.394;11.136;2023-07-29T02:16:28;5.47;;;4.37;;
3197;SDS011;1611;49.394;11.136;2023-07-29T02:18:55;4.60;;;4.13;;
3197;SDS011;1611;49.394;11.136;2023-07-29T02:21:22;8.43;;;4.43;;
3197;SDS011;1611;49.394;11.136;2023-07-29T02:23:48;12.10;;;5.10;;
3197;SDS011;1611;49.394;11.136;2023-07-29T02:26:16;5.03;;;4.27;;
3197;SDS011;1611;49.394;11.136;2023-07-29T02:28:42;8.00;;;4.50;;
3197;SDS011;1611;49.394;11.136;2023-07-29T02:31:14;5.00;;;4.20;;
3197;SDS011;1611;49.394;11.136;2023-07-29T02:33:42;4.30;;;4.00;;
3197;SDS011;1611;49.394;11.136;2023-07-29T02:36:11;5.23;;;3.97;;
3197;SDS011;1611;49.394;11.136;2023-07-29T02:38:38;7.57;;;4.43;;
3197;SDS011;1611;49.394;11.136;2023-07-29T02:41:05;5.43;;;4.43;;
3197;SDS011;1611;49.394;11.136;2023-07-29T02:43:34;5.17;;;4.77;;
3197;SDS011;1611;49.394;11.136;2023-07-29T02:46:00;4.30;;;4.10;;
3197;SDS011;1611;49.394;11.136;2023-07-29T02:48:28;8.77;;;3.90;;
3197;SDS011;1611;49.394;11.136;2023-07-29T02:50:55;4.73;;;4.43;;
3197;SDS011;1611;49.394;11.136;2023-07-29T02:53:22;19.10;;;4.70;;
3197;SDS011;1611;49.394;11.136;2023-07-29T02:55:49;8.03;;;4.20;;
3197;SDS011;1611;49.394;11.136;2023-07-29T02:58:16;9.03;;;5.10;;
3197;SDS011;1611;49.394;11.136;2023-07-29T03:00:43;5.60;;;4.00;;
3197;SDS011;1611;49.394;11.136;2023-07-29T03:03:09;4.50;;;4.10;;
3197;SDS011;1611;49.394;11.136;2023-07-29T03:05:37;4.77;;;4.40;;
3197;SDS011;1611;49.394;11.136;2023-07-29T03:08:04;7.17;;;5.10;;
3197;SDS011;1611;49.394;11.136;2023-07-29T03:10:31;6.70;;;4.50;;
3197;SDS011;1611;49.394;11.136;2023-07-29T03:13:00;4.80;;;4.47;;
3197;SDS011;1611;49.394;11.136;2023-07-29T03:15:27;5.07;;;4.73;;
3197;SDS011;1611;49.394;11.136;2023-07-29T03:17:54;7.73;;;4.50;;
3197;SDS011;1611;49.394;11.136;2023-07-29T03:20:20;8.43;;;4.43;;
3197;SDS011;1611;49.394;11.136;2023-07-29T03:22:48;8.60;;;4.77;;
3197;SDS011;1611;49.394;11.136;2023-07-29T03:25:15;5.43;;;4.93;;
3197;SDS011;1611;49.394;11.136;2023-07-29T03:27:42;5.63;;;4.53;;
3197;SDS011;1611;49.394;11.136;2023-07-29T03:30:10;5.17;;;4.80;;
3197;SDS011;1611;49.394;11.136;2023-07-29T03:32:38;5.50;;;5.00;;
3197;SDS011;1611;49.394;11.136;2023-07-29T03:35:09;9.30;;;4.57;;
3197;SDS011;1611;49.394;11.136;2023-07-29T03:37:36;8.20;;;4.77;;
3197;SDS011;1611;49.394;11.136;2023-07-29T03:40:05;4.80;;;4.50;;
3197;SDS011;1611;49.394;11.136;2023-07-29T03:42:34;4.57;;;4.03;;
3197;SDS011;1611;49.394;11.136;2023-07-29T03:45:00;5.87;;;5.20;;
3197;SDS011;1611;49.394;11.136;2023-07-29T03:47:27;5.27;;;4.87;;
3197;SDS011;1611;49.394;11.136;2023-07-29T03:49:54;5.67;;;4.90;;
3197;SDS011;1611;49.394;11.136;2023-07-29T03:52:21;8.60;;;4.83;;
3197;SDS011;1611;49.394;11.136;2023-07-29T03:54:48;4.43;;;4.03;;
3197;SDS011;1611;49.394;11.136;2023-07-29T03:57:16;5.20;;;4.80;;
3197;SDS011;1611;49.394;11.136;2023-07-29T03:59:43;5.73;;;5.23;;
3197;SDS011;1611;49.394;11.136;2023-07-29T04:02:10;4.53;;;4.23;;
3197;SDS011;1611;49.394;11.136;2023-07-29T04:04:36;4.80;;;4.40;;
3197;SDS011;1611;49.394;11.136;2023-07-29T04:07:03;7.13;;;4.73;;
3197;SDS011;1611;49.394;11.136;2023-07-29T04:09:31;4.30;;;4.00;;
3197;SDS011;1611;49.394;11.136;2023-07-29T04:11:58;5.83;;;5.13;;
3197;SDS011;1611;49.394;11.136;2023-07-29T04:14:26;8.33;;;4.83;;
3197;SDS011;1611;49.394;11.136;2023-07-29T04:16:53;5.37;;;4.87;;
3197;SDS011;1611;49.394;11.136;2023-07-29T04:19:20;8.83;;;4.83;;
3197;SDS011;1611;49.394;11.136;2023-07-29T04:21:47;7.20;;;5.30;;
3197;SDS011;1611;49.394;11.136;2023-07-29T04:24:15;4.97;;;4.67;;
3197;SDS011;1611;49.394;11.136;2023-07-29T04:26:42;5.83;;;4.73;;
3197;SDS011;1611;49.394;11.136;2023-07-29T04:29:09;4.50;;;4.30;;
3197;SDS011;1611;49.394;11.136;2023-07-29T04:31:37;7.47;;;4.23;;
3197;SDS011;1611;49.394;11.136;2023-07-29T04:34:04;5.03;;;4.47;;
3197;SDS011;1611;49.394;11.136;2023-07-29T04:36:31;5.10;;;4.70;;
3197;SDS011;1611;49.394;11.136;2023-07-29T04:38:58;5.10;;;4.50;;
3197;SDS011;1611;49.394;11.136;2023-07-29T04:41:25;4.10;;;3.90;;
3197;SDS011;1611;49.394;11.136;2023-07-29T04:43:51;9.70;;;4.63;;
3197;SDS011;1611;49.394;11.136;2023-07-29T04:46:18;7.73;;;4.00;;
3197;SDS011;1611;49.394;11.136;2023-07-29T04:48:46;4.57;;;4.27;;
3197;SDS011;1611;49.394;11.136;2023-07-29T04:51:13;6.87;;;4.70;;
3197;SDS011;1611;49.394;11.136;2023-07-29T04:53:40;4.60;;;3.77;;
3197;SDS011;1611;49.394;11.136;2023-07-29T04:56:06;5.77;;;4.00;;
3197;SDS011;1611;49.394;11.136;2023-07-29T04:58:33;5.43;;;3.60;;
3197;SDS011;1611;49.394;11.136;2023-07-29T05:01:00;9.60;;;3.90;;
3197;SDS011;1611;49.394;11.136;2023-07-29T05:03:28;5.10;;;3.60;;
3197;SDS011;1611;49.394;11.136;2023-07-29T05:05:57;5.50;;;3.93;;
3197;SDS011;1611;49.394;11.136;2023-07-29T05:08:24;7.40;;;3.97;;
3197;SDS011;1611;49.394;11.136;2023-07-29T05:10:51;4.60;;;3.60;;
3197;SDS011;1611;49.394;11.136;2023-07-29T05:13:19;5.30;;;3.50;;
3197;SDS011;1611;49.394;11.136;2023-07-29T05:15:46;4.30;;;3.93;;
3197;SDS011;1611;49.394;11.136;2023-07-29T05:18:14;7.27;;;3.70;;
3197;SDS011;1611;49.394;11.136;2023-07-29T05:20:41;4.27;;;3.87;;
3197;SDS011;1611;49.394;11.136;2023-07-29T05:23:09;6.00;;;3.60;;
3197;SDS011;1611;49.394;11.136;2023-07-29T05:25:35;5.73;;;3.90;;
3197;SDS011;1611;49.394;11.136;2023-07-29T05:28:02;4.13;;;3.30;;
3197;SDS011;1611;49.394;11.136;2023-07-29T05:30:30;6.00;;;3.43;;
3197;SDS011;1611;49.394;11.136;2023-07-29T05:32:59;4.30;;;3.17;;
3197;SDS011;1611;49.394;11.136;2023-07-29T05:35:26;3.30;;;3.10;;
3197;SDS011;1611;49.394;11.136;2023-07-29T05:37:53;3.10;;;2.97;;
3197;SDS011;1611;49.394;11.136;2023-07-29T05:40:21;3.60;;;3.30;;
3197;SDS011;1611;49.394;11.136;2023-07-29T05:42:47;2.77;;;2.57;;
3197;SDS011;1611;49.394;11.136;2023-07-29T05:45:14;3.50;;;3.27;;
3197;SDS011;1611;49.394;11.136;2023-07-29T05:47:41;6.27;;;3.90;;
3197;SDS011;1611;49.394;11.136;2023-07-29T05:50:09;9.27;;;3.50;;
3197;SDS011;1611;49.394;11.136;2023-07-29T05:52:36;3.10;;;3.00;;
3197;SDS011;1611;49.394;11.136;2023-07-29T05:55:03;3.20;;;3.10;;
3197;SDS011;1611;49.394;11.136;2023-07-29T05:57:32;8.00;;;3.67;;
3197;SDS011;1611;49.394;11.136;2023-07-29T05:59:58;3.80;;;3.23;;
3197;SDS011;1611;49.394;11.136;2023-07-29T06:02:25;3.20;;;3.00;;
3197;SDS011;1611;49.394;11.136;2023-07-29T06:04:52;10.20;;;2.73;;
3197;SDS011;1611;49.394;11.136;2023-07-29T06:07:18;3.33;;;3.20;;
3197;SDS011;1611;49.394;11.136;2023-07-29T06:09:45;4.50;;;3.40;;
3197;SDS011;1611;49.394;11.136;2023-07-29T06:12:12;3.97;;;3.50;;
3197;SDS011;1611;49.394;11.136;2023-07-29T06:14:40;3.80;;;3.30;;
3197;SDS011;1611;49.394;11.136;2023-07-29T06:17:07;2.77;;;2.67;;
3197;SDS011;1611;49.394;11.136;2023-07-29T06:19:36;3.90;;;3.10;;
3197;SDS011;1611;49.394;11.136;2023-07-29T06:22:03;4.40;;;3.20;;
3197;SDS011;1611;49.394;11.136;2023-07-29T06:24:31;3.73;;;3.43;;
3197;SDS011;1611;49.394;11.136;2023-07-29T06:26:58;3.10;;;3.00;;
3197;SDS011;1611;49.394;11.136;2023-07-29T06:29:25;4.73;;;4.20;;
3197;SDS011;1611;49.394;11.136;2023-07-29T06:31:53;7.40;;;3.63;;
3197;SDS011;1611;49.394;11.136;2023-07-29T06:34:19;5.57;;;3.70;;
3197;SDS011;1611;49.394;11.136;2023-07-29T06:36:46;6.20;;;3.20;;
3197;SDS011;1611;49.394;11.136;2023-07-29T06:39:13;4.43;;;4.10;;
3197;SDS011;1611;49.394;11.136;2023-07-29T06:41:40;4.40;;;4.00;;
3197;SDS011;1611;49.394;11.136;2023-07-29T06:44:06;8.07;;;3.30;;
3197;SDS011;1611;49.394;11.136;2023-07-29T06:46:33;4.10;;;3.80;;
3197;SDS011;1611;49.394;11.136;2023-07-29T06:49:01;8.63;;;4.60;;
3197;SDS011;1611;49.394;11.136;2023-07-29T06:51:28;8.63;;;4.43;;
3197;SDS011;1611;49.394;11.136;2023-07-29T06:53:58;7.60;;;5.50;;
3197;SDS011;1611;49.394;11.136;2023-07-29T06:56:25;4.93;;;4.50;;
3197;SDS011;1611;49.394;11.136;2023-07-29T06:58:51;9.67;;;5.70;;
3197;SDS011;1611;49.394;11.136;2023-07-29T07:01:18;10.30;;;4.90;;
3197;SDS011;1611;49.394;11.136;2023-07-29T07:03:45;5.70;;;5.00;;
3197;SDS011;1611;49.394;11.136;2023-07-29T07:06:13;9.37;;;5.10;;
3197;SDS011;1611;49.394;11.136;2023-07-29T07:08:40;5.93;;;5.30;;
3197;SDS011;1611;49.394;11.136;2023-07-29T07:11:07;6.40;;;5.00;;
3197;SDS011;1611;49.394;11.136;2023-07-29T07:13:34;9.00;;;5.27;;
3197;SDS011;1611;49.394;11.136;2023-07-29T07:16:01;5.30;;;4.80;;
3197;SDS011;1611;49.394;11.136;2023-07-29T07:18:28;6.80;;;5.60;;
3197;SDS011;1611;49.394;11.136;2023-07-29T07:20:54;9.40;;;4.70;;
3197;SDS011;1611;49.394;11.136;2023-07-29T07:23:22;6.47;;;4.87;;
3197;SDS011;1611;49.394;11.136;2023-07-29T07:25:49;6.43;;;5.40;;
3197;SDS011;1611;49.394;11.136;2023-07-29T07:28:16;13.70;;;6.57;;
3197;SDS011;1611;49.394;11.136;2023-07-29T07:30:43;6.57;;;5.17;;
3197;SDS011;1611;49.394;11.136;2023-07-29T07:33:09;5.50;;;5.00;;
3197;SDS011;1611;49.394;11.136;2023-07-29T07:35:36;6.80;;;4.27;;
3197;SDS011;1611;49.394;11.136;2023-07-29T07:38:03;5.63;;;5.07;;
3197;SDS011;1611;49.394;11.136;2023-07-29T07:40:33;6.23;;;5.00;;
3197;SDS011;1611;49.394;11.136;2023-07-29T07:43:00;5.23;;;4.83;;
3197;SDS011;1611;49.394;11.136;2023-07-29T07:45:27;7.23;;;5.77;;
3197;SDS011;1611;49.394;11.136;2023-07-29T07:47:54;6.73;;;5.60;;
3197;SDS011;1611;49.394;11.136;2023-07-29T07:50:22;5.33;;;4.90;;
3197;SDS011;1611;49.394;11.136;2023-07-29T07:52:49;8.53;;;5.07;;
3197;SDS011;1611;49.394;11.136;2023-07-29T07:55:16;9.43;;;5.40;;
3197;SDS011;1611;49.394;11.136;2023-07-29T07:57:44;6.37;;;4.77;;
3197;SDS011;1611;49.394;11.136;2023-07-29T08:00:11;5.83;;;5.30;;
3197;SDS011;1611;49.394;11.136;2023-07-29T08:02:40;5.60;;;5.20;;
3197;SDS011;1611;49.394;11.136;2023-07-29T08:05:07;5.57;;;5.17;;
3197;SDS011;1611;49.394;11.136;2023-07-29T08:07:34;6.50;;;5.90;;
3197;SDS011;1611;49.394;11.136;2023-07-29T08:10:01;5.80;;;5.33;;
3197;SDS011;1611;49.394;11.136;2023-07-29T08:12:28;5.83;;;5.50;;
3197;SDS011;1611;49.394;11.136;2023-07-29T08:14:56;5.87;;;5.40;;
3197;SDS011;1611;49.394;11.136;2023-07-29T08:17:23;5.80;;;5.40;;
3197;SDS011;1611;49.394;11.136;2023-07-29T08:19:50;6.53;;;6.00;;
3197;SDS011;1611;49.394;11.136;2023-07-29T08:22:17;5.50;;;5.00;;
3197;SDS011;1611;49.394;11.136;2023-07-29T08:24:43;7.30;;;5.83;;
3197;SDS011;1611;49.394;11.136;2023-07-29T08:27:10;7.00;;;6.33;;
3197;SDS011;1611;49.394;11.136;2023-07-29T08:29:37;6.40;;;5.90;;
3197;SDS011;1611;49.394;11.136;2023-07-29T08:32:05;5.77;;;5.27;;
3197;SDS011;1611;49.394;11.136;2023-07-29T08:34:32;6.47;;;5.97;;
3197;SDS011;1611;49.394;11.136;2023-07-29T08:36:59;7.00;;;6.40;;
3197;SDS011;1611;49.394;11.136;2023-07-29T08:39:25;9.70;;;7.10;;
3197;SDS011;1611;49.394;11.136;2023-07-29T08:41:56;7.77;;;7.07;;
3197;SDS011;1611;49.394;11.136;2023-07-29T08:44:26;18.87;;;9.40;;
3197;SDS011;1611;49.394;11.136;2023-07-29T08:46:56;11.07;;;8.20;;
3197;SDS011;1611;49.394;11.136;2023-07-29T08:49:24;12.87;;;8.30;;
3197;SDS011;1611;49.394;11.136;2023-07-29T08:51:53;10.33;;;7.43;;
3197;SDS011;1611;49.394;11.136;2023-07-29T08:54:23;9.63;;;6.63;;
3197;SDS011;1611;49.394;11.136;2023-07-29T08:56:50;8.67;;;7.87;;
3197;SDS011;1611;49.394;11.136;2023-07-29T08:59:17;21.73;;;8.93;;
3197;SDS011;1611;49.394;11.136;2023-07-29T09:01:45;7.87;;;7.17;;
3197;SDS011;1611;49.394;11.136;2023-07-29T09:04:13;7.90;;;7.20;;
3197;SDS011;1611;49.394;11.136;2023-07-29T09:06:41;9.50;;;7.50;;
3197;SDS011;1611;49.394;11.136;2023-07-29T09:09:09;6.90;;;6.30;;
3197;SDS011;1611;49.394;11.136;2023-07-29T09:11:35;9.53;;;6.70;;
3197;SDS011;1611;49.394;11.136;2023-07-29T09:14:03;10.57;;;6.13;;
3197;SDS011;1611;49.394;11.136;2023-07-29T09:16:30;8.27;;;6.40;;
3197;SDS011;1611;49.394;11.136;2023-07-29T09:18:58;7.90;;;6.60;;
3197;SDS011;1611;49.394;11.136;2023-07-29T09:21:28;7.57;;;5.70;;
3197;SDS011;1611;49.394;11.136;2023-07-29T09:23:56;5.90;;;5.40;;
3197;SDS011;1611;49.394;11.136;2023-07-29T09:26:23;7.23;;;6.10;;
3197;SDS011;1611;49.394;11.136;2023-07-29T09:28:51;7.00;;;6.43;;
3197;SDS011;1611;49.394;11.136;2023-07-29T09:31:19;10.93;;;8.07;;
3197;SDS011;1611;49.394;11.136;2023-07-29T09:33:47;7.90;;;6.20;;
3197;SDS011;1611;49.394;11.136;2023-07-29T09:36:14;7.23;;;6.50;;
3197;SDS011;1611;49.394;11.136;2023-07-29T09:38:41;6.20;;;5.77;;
3197;SDS011;1611;49.394;11.136;2023-07-29T09:41:10;6.10;;;5.33;;
3197;SDS011;1611;49.394;11.136;2023-07-29T09:43:39;15.33;;;7.60;;
3197;SDS011;1611;49.394;11.136;2023-07-29T09:46:05;14.90;;;7.57;;
3197;SDS011;1611;49.394;11.136;2023-07-29T09:48:33;7.80;;;5.60;;
3197;SDS011;1611;49.394;11.136;2023-07-29T09:51:09;6.77;;;5.67;;
3197;SDS011;1611;49.394;11.136;2023-07-29T09:53:39;7.03;;;6.03;;
3197;SDS011;1611;49.394;11.136;2023-07-29T09:56:07;6.33;;;5.60;;
3197;SDS011;1611;49.394;11.136;2023-07-29T09:58:36;6.60;;;6.00;;
3197;SDS011;1611;49.394;11.136;2023-07-29T10:01:04;7.80;;;7.00;;
3197;SDS011;1611;49.394;11.136;2023-07-29T10:03:32;8.83;;;6.70;;
3197;SDS011;1611;49.394;11.136;2023-07-29T10:06:00;6.53;;;6.00;;
3197;SDS011;1611;49.394;11.136;2023-07-29T10:08:29;6.30;;;5.90;;
3197;SDS011;1611;49.394;11.136;2023-07-29T10:10:57;7.27;;;6.53;;
3197;SDS011;1611;49.394;11.136;2023-07-29T10:13:26;9.73;;;6.10;;
3197;SDS011;1611;49.394;11.136;2023-07-29T10:15:54;6.10;;;5.13;;
3197;SDS011;1611;49.394;11.136;2023-07-29T10:18:21;9.27;;;6.77;;
3197;SDS011;1611;49.394;11.136;2023-07-29T10:20:50;6.33;;;5.70;;
3197;SDS011;1611;49.394;11.136;2023-07-29T10:23:18;6.50;;;5.20;;
3197;SDS011;1611;49.394;11.136;2023-07-29T10:25:47;7.50;;;6.13;;
3197;SDS011;1611;49.394;11.136;2023-07-29T10:28:16;5.80;;;5.27;;
3197;SDS011;1611;49.394;11.136;2023-07-29T10:30:47;8.37;;;5.23;;
3197;SDS011;1611;49.394;11.136;2023-07-29T10:33:14;11.70;;;5.73;;
3197;SDS011;1611;49.394;11.136;2023-07-29T10:35:41;5.53;;;4.87;;
3197;SDS011;1611;49.394;11.136;2023-07-29T10:38:08;4.77;;;4.23;;
3197;SDS011;1611;49.394;11.136;2023-07-29T10:40:45;16.23;;;4.00;;
3197;SDS011;1611;49.394;11.136;2023-07-29T10:43:14;5.27;;;4.80;;
3197;SDS011;1611;49.394;11.136;2023-07-29T10:45:45;4.47;;;4.20;;
3197;SDS011;1611;49.394;11.136;2023-07-29T10:51:22;4.17;;;3.87;;
3197;SDS011;1611;49.394;11.136;2023-07-29T10:53:51;4.13;;;3.73;;
3197;SDS011;1611;49.394;11.136;2023-07-29T10:56:24;3.77;;;3.50;;
3197;SDS011;1611;49.394;11.136;2023-07-29T10:58:53;4.50;;;3.60;;
3197;SDS011;1611;49.394;11.136;2023-07-29T11:01:27;3.33;;;3.23;;
3197;SDS011;1611;49.394;11.136;2023-07-29T11:09:51;3.37;;;3.07;;
3197;SDS011;1611;49.394;11.136;2023-07-29T11:12:33;2.90;;;2.50;;
3197;SDS011;1611;49.394;11.136;2023-07-29T11:15:15;2.97;;;2.83;;
3197;SDS011;1611;49.394;11.136;2023-07-29T11:17:45;4.17;;;3.10;;
3197;SDS011;1611;49.394;11.136;2023-07-29T11:20:14;3.40;;;3.20;;
3197;SDS011;1611;49.394;11.136;2023-07-29T11:22:41;2.97;;;2.70;;
3197;SDS011;1611;49.394;11.136;2023-07-29T11:25:09;4.33;;;2.50;;
3197;SDS011;1611;49.394;11.136;2023-07-29T11:27:37;2.67;;;2.47;;
3197;SDS011;1611;49.394;11.136;2023-07-29T11:30:05;7.93;;;2.80;;
3197;SDS011;1611;49.394;11.136;2023-07-29T11:32:33;2.53;;;2.33;;
3197;SDS011;1611;49.394;11.136;2023-07-29T11:35:02;2.63;;;2.57;;
3197;SDS011;1611;49.394;11.136;2023-07-29T11:37:36;2.90;;;2.70;;
3197;SDS011;1611;49.394;11.136;2023-07-29T11:40:13;3.53;;;2.83;;
3197;SDS011;1611;49.394;11.136;2023-07-29T11:42:41;2.97;;;2.87;;
3197;SDS011;1611;49.394;11.136;2023-07-29T11:45:08;2.50;;;2.40;;
3197;SDS011;1611;49.394;11.136;2023-07-29T11:47:35;3.57;;;3.00;;
3197;SDS011;1611;49.394;11.136;2023-07-29T11:50:04;2.90;;;2.80;;
3197;SDS011;1611;49.394;11.136;2023-07-29T11:52:34;6.60;;;2.17;;
3197;SDS011;1611;49.394;11.136;2023-07-29T11:55:02;2.90;;;2.70;;
3197;SDS011;1611;49.394;11.136;2023-07-29T11:57:30;3.03;;;2.60;;
3197;SDS011;1611;49.394;11.136;2023-07-29T11:59:57;3.30;;;2.30;;
3197;SDS011;1611;49.394;11.136;2023-07-29T12:02:24;3.40;;;2.60;;
3197;SDS011;1611;49.394;11.136;2023-07-29T12:04:51;2.57;;;2.37;;
3197;SDS011;1611;49.394;11.136;2023-07-29T12:07:20;3.57;;;2.33;;
3197;SDS011;1611;49.394;11.136;2023-07-29T12:09:47;4.43;;;3.13;;
3197;SDS011;1611;49.394;11.136;2023-07-29T12:12:15;2.60;;;2.50;;
3197;SDS011;1611;49.394;11.136;2023-07-29T12:14:43;2.93;;;2.70;;
3197;SDS011;1611;49.394;11.136;2023-07-29T12:17:11;5.50;;;2.70;;
3197;SDS011;1611;49.394;11.136;2023-07-29T12:19:39;5.13;;;2.67;;
3197;SDS011;1611;49.394;11.136;2023-07-29T12:22:07;5.07;;;2.60;;
3197;SDS011;1611;49.394;11.136;2023-07-29T12:24:37;3.50;;;3.07;;
3197;SDS011;1611;49.394;11.136;2023-07-29T12:27:05;2.90;;;2.70;;
3197;SDS011;1611;49.394;11.136;2023-07-29T12:29:39;2.70;;;2.60;;
3197;SDS011;1611;49.394;11.136;2023-07-29T12:32:06;4.47;;;2.80;;
3197;SDS011;1611;49.394;11.136;2023-07-29T12:34:34;4.63;;;2.77;;
3197;SDS011;1611;49.394;11.136;2023-07-29T12:37:03;3.87;;;3.27;;
3197;SDS011;1611;49.394;11.136;2023-07-29T12:39:31;3.30;;;3.10;;
3197;SDS011;1611;49.394;11.136;2023-07-29T12:42:00;7.03;;;3.23;;
3197;SDS011;1611;49.394;11.136;2023-07-29T12:44:30;3.93;;;3.30;;
3197;SDS011;1611;49.394;11.136;2023-07-29T12:46:58;3.27;;;3.07;;
3197;SDS011;1611;49.394;11.136;2023-07-29T12:49:27;3.17;;;2.97;;
3197;SDS011;1611;49.394;11.136;2023-07-29T12:51:54;4.80;;;2.90;;
3197;SDS011;1611;49.394;11.136;2023-07-29T12:54:21;3.07;;;2.90;;
3197;SDS011;1611;49.394;11.136;2023-07-29T12:56:48;3.00;;;2.93;;
3197;SDS011;1611;49.394;11.136;2023-07-29T12:59:16;3.60;;;3.50;;
3197;SDS011;1611;49.394;11.136;2023-07-29T13:01:43;3.37;;;3.17;;
3197;SDS011;1611;49.394;11.136;2023-07-29T13:04:10;3.47;;;3.37;;
3197;SDS011;1611;49.394;11.136;2023-07-29T13:06:37;2.97;;;2.87;;
3197;SDS011;1611;49.394;11.136;2023-07-29T13:09:04;3.63;;;3.53;;
3197;SDS011;1611;49.394;11.136;2023-07-29T13:11:31;5.57;;;3.33;;
3197;SDS011;1611;49.394;11.136;2023-07-29T13:13:58;4.07;;;3.97;;
3197;SDS011;1611;49.394;11.136;2023-07-29T13:16:27;3.57;;;3.37;;
3197;SDS011;1611;49.394;11.136;2023-07-29T13:18:53;3.33;;;3.13;;
3197;SDS011;1611;49.394;11.136;2023-07-29T13:21:20;3.60;;;3.47;;
3197;SDS011;1611;49.394;11.136;2023-07-29T13:23:47;3.50;;;3.30;;
3197;SDS011;1611;49.394;11.136;2023-07-29T13:26:14;4.00;;;3.70;;
3197;SDS011;1611;49.394;11.136;2023-07-29T13:28:40;3.47;;;3.33;;
3197;SDS011;1611;49.394;11.136;2023-07-29T13:31:07;5.00;;;2.70;;
3197;SDS011;1611;49.394;11.136;2023-07-29T13:33:35;2.53;;;2.43;;
3197;SDS011;1611;49.394;11.136;2023-07-29T13:36:03;2.97;;;2.80;;
3197;SDS011;1611;49.394;11.136;2023-07-29T13:38:30;2.63;;;2.43;;
3197;SDS011;1611;49.394;11.136;2023-07-29T13:40:56;2.73;;;2.63;;
3197;SDS011;1611;49.394;11.136;2023-07-29T13:43:23;2.87;;;2.67;;
3197;SDS011;1611;49.394;11.136;2023-07-29T13:45:50;2.50;;;2.40;;
3197;SDS011;1611;49.394;11.136;2023-07-29T13:48:17;2.50;;;2.40;;
3197;SDS011;1611;49.394;11.136;2023-07-29T13:50:46;3.00;;;2.80;;
3197;SDS011;1611;49.394;11.136;2023-07-29T13:53:12;2.60;;;2.50;;
3197;SDS011;1611;49.394;11.136;2023-07-29T13:55:39;2.40;;;2.30;;
3197;SDS011;1611;49.394;11.136;2023-07-29T13:58:06;2.50;;;2.30;;
3197;SDS011;1611;49.394;11.136;2023-07-29T14:00:33;3.00;;;2.20;;
3197;SDS011;1611;49.394;11.136;2023-07-29T14:02:59;4.20;;;2.47;;
3197;SDS011;1611;49.394;11.136;2023-07-29T14:05:26;2.63;;;2.40;;
3197;SDS011;1611;49.394;11.136;2023-07-29T14:07:54;2.77;;;2.70;;
3197;SDS011;1611;49.394;11.136;2023-07-29T14:10:21;4.53;;;3.07;;
3197;SDS011;1611;49.394;11.136;2023-07-29T14:12:48;3.20;;;3.00;;
3197;SDS011;1611;49.394;11.136;2023-07-29T14:15:14;3.00;;;2.80;;
3197;SDS011;1611;49.394;11.136;2023-07-29T14:17:41;3.00;;;2.70;;
3197;SDS011;1611;49.394;11.136;2023-07-29T14:20:08;3.93;;;3.57;;
3197;SDS011;1611;49.394;11.136;2023-07-29T14:22:36;2.80;;;2.60;;
3197;SDS011;1611;49.394;11.136;2023-07-29T14:25:04;3.40;;;3.10;;
3197;SDS011;1611;49.394;11.136;2023-07-29T14:27:35;3.93;;;2.80;;
3197;SDS011;1611;49.394;11.136;2023-07-29T14:30:04;2.60;;;2.50;;
3197;SDS011;1611;49.394;11.136;2023-07-29T14:32:33;4.60;;;2.43;;
3197;SDS011;1611;49.394;11.136;2023-07-29T14:35:08;3.20;;;2.50;;
3197;SDS011;1611;49.394;11.136;2023-07-29T14:37:35;2.50;;;2.40;;
3197;SDS011;1611;49.394;11.136;2023-07-29T14:40:03;2.40;;;2.40;;
3197;SDS011;1611;49.394;11.136;2023-07-29T14:42:32;2.80;;;2.70;;
3197;SDS011;1611;49.394;11.136;2023-07-29T14:44:59;2.60;;;2.47;;
3197;SDS011;1611;49.394;11.136;2023-07-29T14:47:25;3.77;;;2.20;;
3197;SDS011;1611;49.394;11.136;2023-07-29T14:49:52;2.30;;;2.20;;
3197;SDS011;1611;49.394;11.136;2023-07-29T14:52:19;2.00;;;1.90;;
3197;SDS011;1611;49.394;11.136;2023-07-29T14:54:46;2.07;;;1.97;;
3197;SDS011;1611;49.394;11.136;2023-07-29T14:57:14;6.13;;;2.20;;
3197;SDS011;1611;49.394;11.136;2023-07-29T14:59:40;7.10;;;2.17;;
3197;SDS011;1611;49.394;11.136;2023-07-29T15:02:07;2.53;;;2.37;;
3197;SDS011;1611;49.394;11.136;2023-07-29T15:04:34;10.60;;;2.67;;
3197;SDS011;1611;49.394;11.136;2023-07-29T15:07:01;2.50;;;2.23;;
3197;SDS011;1611;49.394;11.136;2023-07-29T15:09:28;2.27;;;2.17;;
3197;SDS011;1611;49.394;11.136;2023-07-29T15:11:55;2.40;;;2.20;;